createdAt,value
2023-01-25T00:18:27.489Z,19.8
2023-01-25T00:48:27.464Z,19.8
2023-01-25T01:18:27.458Z,19.7
2023-01-25T01:48:27.513Z,19.6
2023-01-25T02:18:27.463Z,19.6
2023-01-25T02:48:27.439Z,19.5
2023-01-25T03:18:27.255Z,19.5
2023-01-25T03:48:27.461Z,19.4
2023-01-25T04:18:27.507Z,19.4
2023-01-25T04:48:27.399Z,19.5
2023-01-25T05:18:27.362Z,19.6
2023-01-25T05:48:27.472Z,19.8
2023-01-25T06:18:27.458Z,19.8
2023-01-25T06:48:27.417Z,20.0
2023-01-25T07:18:27.428Z,20.1
2023-01-25T07:48:27.417Z,20.3
2023-01-25T08:18:27.446Z,20.5
2023-01-25T08:48:27.431Z,20.6
2023-01-25T09:18:27.440Z,20.7
2023-01-25T09:48:27.326Z,20.8
2023-01-25T10:18:27.398Z,20.8
2023-01-25T10:48:27.330Z,20.8
2023-01-25T11:18:27.269Z,20.8
2023-01-25T11:48:27.475Z,20.9
2023-01-25T12:18:27.256Z,20.9
2023-01-25T12:48:27.238Z,21.0
2023-01-25T13:18:27.274Z,20.9
2023-01-25T13:48:27.233Z,21.0
2023-01-25T14:18:27.309Z,21.1
2023-01-25T14:48:27.247Z,21.1
2023-01-25T15:18:27.232Z,21.1
2023-01-25T15:48:27.395Z,21.1
2023-01-25T16:18:27.282Z,21.2
2023-01-25T16:48:27.301Z,21.3
2023-01-25T17:18:27.228Z,21.3
2023-01-25T17:48:27.216Z,21.2
2023-01-25T18:18:27.196Z,21.3
2023-01-25T18:48:27.206Z,21.3
2023-01-25T19:18:27.228Z,21.3
2023-01-25T19:48:27.222Z,21.1
2023-01-25T20:18:27.196Z,20.8
2023-01-25T20:48:27.223Z,20.6
2023-01-25T21:18:27.234Z,20.4
2023-01-25T21:48:27.213Z,20.1
2023-01-25T22:18:27.184Z,20.0
2023-01-25T22:48:27.195Z,19.8
2023-01-25T23:18:27.170Z,19.7
2023-01-25T23:48:27.190Z,19.6
